Time;durP1;ratioP1;P1;durP2;ratioP2;P2;SDS_P1;SDS_P2;PMS_P1;PMS_P2;Temp;Humidity;BMP_temperature;BMP_pressure;BME280_temperature;BME280_humidity;BME280_pressure;Samples;Min_cycle;Max_cycle;Signal;HPM_P1;HPM_P2
2023/05/21 00:00:50;;;;;;;3.15;2.05;;;23.60;51.10;;;;;;5038672;28;20025;-70
2023/05/21 00:03:16;;;;;;;3.13;1.83;;;23.60;51.10;;;;;;5040095;28;20025;-71
2023/05/21 00:05:43;;;;;;;3.22;2.28;;;23.60;51.10;;;;;;5037770;28;20037;-71
2023/05/21 00:08:09;;;;;;;2.97;2.20;;;23.60;51.10;;;;;;5037551;28;20174;-71
2023/05/21 00:10:35;;;;;;;3.80;2.10;;;23.60;51.20;;;;;;5040447;28;20086;-71
2023/05/21 00:13:01;;;;;;;2.75;1.98;;;23.60;51.10;;;;;;5037103;28;20704;-71
2023/05/21 00:15:26;;;;;;;3.47;2.13;;;23.60;51.10;;;;;;5035502;28;20690;-71
2023/05/21 00:17:52;;;;;;;3.10;2.20;;;23.50;51.10;;;;;;5039709;28;20026;-71
2023/05/21 00:20:18;;;;;;;2.80;2.00;;;23.50;51.20;;;;;;5040543;28;20362;-71
2023/05/21 00:22:43;;;;;;;2.60;1.80;;;23.50;51.10;;;;;;5035834;28;20024;-71
2023/05/21 00:25:10;;;;;;;3.28;2.25;;;23.50;51.20;;;;;;5039018;28;20495;-70
2023/05/21 00:27:36;;;;;;;3.13;2.30;;;23.50;51.20;;;;;;5036280;28;20497;-70
2023/05/21 00:30:03;;;;;;;2.70;2.00;;;23.50;51.20;;;;;;5038653;28;20029;-71
2023/05/21 00:32:28;;;;;;;3.80;2.03;;;23.50;51.10;;;;;;5038429;28;20477;-71
2023/05/21 00:34:55;;;;;;;2.80;2.00;;;23.50;51.20;;;;;;5038541;28;20118;-71
2023/05/21 00:37:20;;;;;;;2.95;2.10;;;23.50;51.20;;;;;;5038962;28;20030;-71
2023/05/21 00:39:46;;;;;;;3.83;2.10;;;23.50;51.20;;;;;;5036881;28;20895;-72
2023/05/21 00:42:16;;;;;;;2.85;2.00;;;23.40;51.10;;;;;;5036474;28;20212;-71
2023/05/21 00:44:45;;;;;;;2.85;2.17;;;23.40;51.10;;;;;;5036680;28;20033;-71
2023/05/21 00:47:12;;;;;;;2.97;2.30;;;23.40;51.20;;;;;;5038476;28;20028;-71
2023/05/21 00:49:38;;;;;;;2.83;2.00;;;23.40;51.20;;;;;;5038179;28;20052;-72
2023/05/21 00:52:06;;;;;;;3.28;2.33;;;23.40;51.20;;;;;;5036056;28;20047;-72
2023/05/21 00:54:31;;;;;;;3.15;2.17;;;23.40;51.20;;;;;;5036732;28;20033;-71
2023/05/21 00:56:58;;;;;;;3.83;2.10;;;23.40;51.20;;;;;;5037738;28;20044;-71
2023/05/21 00:59:24;;;;;;;2.92;2.08;;;23.40;51.20;;;;;;5038610;28;20036;-71
2023/05/21 01:01:54;;;;;;;2.95;2.10;;;23.40;51.20;;;;;;5038965;28;20342;-72
2023/05/21 01:04:22;;;;;;;3.70;2.20;;;23.40;51.20;;;;;;5037686;28;20057;-71
2023/05/21 01:06:48;;;;;;;3.20;2.20;;;23.40;51.20;;;;;;5036935;28;20500;-71
2023/05/21 01:09:14;;;;;;;3.40;2.50;;;23.30;51.20;;;;;;5036742;28;20021;-71
2023/05/21 01:11:43;;;;;;;2.85;2.13;;;23.30;51.20;;;;;;5037683;28;20408;-72
2023/05/21 01:14:11;;;;;;;2.92;2.28;;;23.30;51.20;;;;;;5039661;28;20123;-71
2023/05/21 01:16:38;;;;;;;3.00;2.10;;;23.30;51.20;;;;;;5036319;28;20037;-71
2023/05/21 01:19:05;;;;;;;3.03;2.10;;;23.30;51.20;;;;;;5039118;28;20162;-71
2023/05/21 01:21:36;;;;;;;3.45;2.30;;;23.30;51.20;;;;;;5037725;28;20033;-71
2023/05/21 01:24:06;;;;;;;2.83;2.08;;;23.30;51.20;;;;;;5037225;28;20043;-71
2023/05/21 01:26:37;;;;;;;2.95;2.00;;;23.30;51.20;;;;;;5037336;28;20408;-71
2023/05/21 01:29:05;;;;;;;3.28;2.33;;;23.30;51.70;;;;;;5035226;28;20094;-71
2023/05/21 01:31:54;;;;;;;2.77;2.20;;;23.20;51.20;;;;;;5039065;28;20029;-71
2023/05/21 01:34:24;;;;;;;3.03;2.10;;;23.30;51.20;;;;;;5038444;28;20506;-71
2023/05/21 01:36:59;;;;;;;3.00;2.22;;;23.30;51.20;;;;;;5068437;28;20030;-72
2023/05/21 01:39:36;;;;;;;2.67;1.98;;;23.20;51.20;;;;;;5035991;28;20061;-71
2023/05/21 01:42:04;;;;;;;3.38;2.30;;;23.20;51.20;;;;;;5038717;28;20103;-71
2023/05/21 01:44:30;;;;;;;2.88;2.10;;;23.20;51.20;;;;;;5035635;28;20104;-71
2023/05/21 01:46:58;;;;;;;3.17;2.20;;;23.20;51.20;;;;;;5040038;28;20033;-71
2023/05/21 01:49:24;;;;;;;3.30;2.20;;;23.20;51.20;;;;;;5043845;28;20017;-71
2023/05/21 01:51:50;;;;;;;3.00;2.10;;;23.20;51.20;;;;;;5043036;28;20030;-72
2023/05/21 01:54:16;;;;;;;3.17;2.20;;;23.20;51.20;;;;;;5039719;28;20465;-71
2023/05/21 01:56:42;;;;;;;4.15;2.05;;;23.20;51.20;;;;;;5039881;28;20057;-71
2023/05/21 01:59:07;;;;;;;2.65;1.95;;;23.20;51.20;;;;;;5041965;28;20404;-71
2023/05/21 02:01:33;;;;;;;2.67;1.98;;;23.20;51.20;;;;;;5041710;28;20032;-71
2023/05/21 02:03:59;;;;;;;2.70;2.10;;;23.20;51.30;;;;;;5048146;28;20444;-71
2023/05/21 02:06:25;;;;;;;2.70;2.00;;;23.20;51.30;;;;;;5040983;28;20056;-71
2023/05/21 02:08:50;;;;;;;3.30;2.20;;;23.10;51.20;;;;;;5039956;28;20769;-71
2023/05/21 02:11:16;;;;;;;2.70;2.08;;;23.10;51.20;;;;;;5041489;28;20040;-72
2023/05/21 02:13:44;;;;;;;3.25;2.08;;;23.10;51.30;;;;;;5041826;28;20102;-71
2023/05/21 02:16:13;;;;;;;3.00;2.10;;;23.20;51.30;;;;;;5037969;28;20393;-71
2023/05/21 02:18:43;;;;;;;2.70;1.95;;;23.10;51.20;;;;;;5040077;28;20014;-72
2023/05/21 02:21:12;;;;;;;2.80;2.13;;;23.10;51.30;;;;;;5056009;28;20444;-71
2023/05/21 02:23:38;;;;;;;2.50;1.95;;;23.10;51.30;;;;;;5040131;28;20034;-71
2023/05/21 02:26:04;;;;;;;3.25;2.20;;;23.10;51.30;;;;;;5042217;28;20032;-72
2023/05/21 02:28:31;;;;;;;3.53;2.20;;;23.10;51.30;;;;;;5039000;28;20025;-71
2023/05/21 02:30:57;;;;;;;3.50;2.28;;;23.10;51.30;;;;;;5039293;28;20037;-71
2023/05/21 02:33:22;;;;;;;3.10;2.08;;;23.10;51.30;;;;;;5039662;28;20047;-71
2023/05/21 02:35:48;;;;;;;2.63;2.00;;;23.10;51.30;;;;;;5040390;28;20043;-71
2023/05/21 02:38:18;;;;;;;3.03;2.17;;;23.10;51.30;;;;;;5039815;28;20028;-72
2023/05/21 02:40:44;;;;;;;2.67;2.00;;;23.00;51.30;;;;;;5037285;28;20021;-72
2023/05/21 02:43:10;;;;;;;2.83;2.10;;;23.00;51.30;;;;;;5043861;28;20478;-72
2023/05/21 02:45:35;;;;;;;3.25;2.08;;;23.00;51.30;;;;;;5039214;28;20033;-72
2023/05/21 02:48:01;;;;;;;3.03;2.15;;;23.00;51.30;;;;;;5039553;28;20037;-71
2023/05/21 02:50:26;;;;;;;3.30;2.20;;;23.00;51.30;;;;;;5039277;28;20026;-71
2023/05/21 02:52:52;;;;;;;3.17;2.08;;;23.00;51.30;;;;;;5041791;28;20033;-71
2023/05/21 02:55:18;;;;;;;2.65;2.05;;;23.00;51.30;;;;;;5041297;28;20064;-71
2023/05/21 02:57:43;;;;;;;2.97;2.00;;;23.00;51.30;;;;;;5038546;28;20030;-71
2023/05/21 03:00:10;;;;;;;2.88;2.28;;;23.00;51.30;;;;;;5040403;28;20111;-71
2023/05/21 03:02:36;;;;;;;3.25;2.10;;;23.00;51.30;;;;;;5042709;28;20037;-71
2023/05/21 03:05:01;;;;;;;4.30;2.22;;;23.00;51.30;;;;;;5042028;28;20097;-71
2023/05/21 03:07:27;;;;;;;2.85;2.10;;;23.00;51.30;;;;;;5040284;28;20063;-71
2023/05/21 03:09:53;;;;;;;2.72;2.13;;;23.00;51.30;;;;;;5039107;28;20033;-71
2023/05/21 03:12:18;;;;;;;2.90;2.20;;;23.00;51.30;;;;;;5041443;28;20461;-70
2023/05/21 03:14:45;;;;;;;3.08;2.10;;;22.90;51.30;;;;;;5040703;28;20405;-71
2023/05/21 03:17:12;;;;;;;3.20;2.10;;;22.90;51.30;;;;;;5038012;28;20033;-71
2023/05/21 03:19:41;;;;;;;2.95;1.98;;;22.90;51.30;;;;;;5041135;28;20094;-71
2023/05/21 03:22:07;;;;;;;3.38;2.20;;;22.90;51.30;;;;;;5040155;28;20895;-71
2023/05/21 03:24:33;;;;;;;3.05;2.00;;;22.90;51.30;;;;;;5039814;28;20025;-71
2023/05/21 03:27:01;;;;;;;2.38;2.08;;;22.90;51.30;;;;;;5039099;28;20112;-71
2023/05/21 03:29:27;;;;;;;2.60;1.98;;;22.90;51.30;;;;;;5039484;28;20041;-72
2023/05/21 03:31:53;;;;;;;3.00;2.13;;;22.90;51.30;;;;;;5043176;28;20036;-71
2023/05/21 03:34:19;;;;;;;2.80;2.13;;;22.90;51.30;;;;;;5042772;28;20033;-71
2023/05/21 03:36:46;;;;;;;3.10;2.22;;;22.90;51.40;;;;;;5037986;28;20040;-70
2023/05/21 03:39:12;;;;;;;3.13;2.10;;;22.90;51.40;;;;;;5071231;28;20127;-71
2023/05/21 03:41:37;;;;;;;2.47;1.80;;;22.90;51.30;;;;;;5040398;28;20100;-71
2023/05/21 03:44:03;;;;;;;3.00;2.30;;;22.90;51.30;;;;;;5037894;28;20040;-71
2023/05/21 03:46:29;;;;;;;3.22;2.13;;;22.90;51.30;;;;;;5040844;28;20064;-71
2023/05/21 03:48:56;;;;;;;3.22;2.28;;;22.90;51.40;;;;;;5038381;28;20481;-71
2023/05/21 03:51:23;;;;;;;2.72;2.10;;;22.90;51.40;;;;;;5041126;28;20418;-71
2023/05/21 03:53:49;;;;;;;3.00;2.15;;;22.90;51.40;;;;;;5073630;28;20086;-71
2023/05/21 03:56:15;;;;;;;2.80;2.10;;;22.80;51.40;;;;;;5037640;28;20544;-71
2023/05/21 03:58:40;;;;;;;2.95;2.20;;;22.90;51.40;;;;;;5038214;28;20021;-71
2023/05/21 04:01:07;;;;;;;2.75;2.03;;;22.90;51.40;;;;;;5040370;28;20031;-71
2023/05/21 04:03:34;;;;;;;2.50;1.75;;;22.80;51.30;;;;;;5039068;28;20496;-71
2023/05/21 04:06:00;;;;;;;2.90;2.10;;;22.80;51.30;;;;;;5037345;28;20022;-72
2023/05/21 04:08:26;;;;;;;3.10;2.10;;;22.80;51.30;;;;;;5036605;28;20431;-71
2023/05/21 04:10:52;;;;;;;2.20;1.80;;;22.80;51.30;;;;;;5038041;28;20028;-72
2023/05/21 04:13:17;;;;;;;2.92;2.20;;;22.80;51.30;;;;;;5038446;28;20041;-71
2023/05/21 04:15:45;;;;;;;2.80;2.00;;;22.80;51.30;;;;;;5037496;28;20381;-71
2023/05/21 04:18:12;;;;;;;3.10;2.05;;;22.80;51.30;;;;;;5038548;28;20454;-72
2023/05/21 04:20:38;;;;;;;3.08;2.15;;;22.80;51.30;;;;;;5038485;28;20064;-71
2023/05/21 04:23:04;;;;;;;2.83;2.05;;;22.80;51.30;;;;;;5039349;28;20057;-71
2023/05/21 04:25:29;;;;;;;2.95;2.00;;;22.80;51.90;;;;;;5038384;28;20078;-70
2023/05/21 04:27:55;;;;;;;2.75;2.13;;;22.80;51.30;;;;;;5039252;28;20025;-70
2023/05/21 04:30:22;;;;;;;2.70;1.90;;;22.80;51.40;;;;;;5037314;28;20032;-71
2023/05/21 04:32:56;;;;;;;2.85;2.15;;;22.70;51.40;;;;;;5053014;28;20926;-65
2023/05/21 04:35:22;;;;;;;2.85;2.00;;;22.80;51.40;;;;;;5035770;28;20033;-64
2023/05/21 04:37:47;;;;;;;2.50;2.00;;;22.80;51.40;;;;;;5036020;28;20038;-64
2023/05/21 04:40:17;;;;;;;2.80;2.03;;;22.80;51.40;;;;;;5034876;28;20443;-64
2023/05/21 04:42:47;;;;;;;;;;;22.70;51.30;;;;;;5037068;28;20036;-64
2023/05/21 04:45:12;;;;;;;3.25;2.30;;;22.70;51.30;;;;;;5035556;28;19999;-64
2023/05/21 04:47:38;;;;;;;2.80;2.03;;;22.70;51.30;;;;;;5035858;28;20133;-64
2023/05/21 04:50:04;;;;;;;2.83;2.10;;;22.70;51.30;;;;;;5035224;28;20030;-64
2023/05/21 04:52:30;;;;;;;2.92;2.13;;;22.70;51.40;;;;;;5050765;28;20049;-64
2023/05/21 04:54:56;;;;;;;2.97;2.20;;;22.70;51.40;;;;;;5035336;28;20067;-65
2023/05/21 04:57:23;;;;;;;2.53;1.90;;;22.70;51.90;;;;;;5044326;28;20025;-64
2023/05/21 04:59:49;;;;;;;2.97;2.22;;;22.70;51.40;;;;;;5036828;28;20116;-64
2023/05/21 05:02:15;;;;;;;2.75;2.22;;;22.70;51.40;;;;;;5038894;28;20108;-64
2023/05/21 05:04:42;;;;;;;2.97;2.17;;;22.70;51.40;;;;;;5038066;28;20316;-64
2023/05/21 05:07:08;;;;;;;2.70;2.10;;;22.70;51.40;;;;;;5037057;28;20113;-64
2023/05/21 05:09:34;;;;;;;2.80;2.20;;;22.70;51.40;;;;;;5036546;28;20427;-64
2023/05/21 05:12:00;;;;;;;2.97;2.08;;;22.70;51.40;;;;;;5035033;28;20060;-64
2023/05/21 05:14:25;;;;;;;2.60;1.85;;;22.70;51.40;;;;;;5035849;28;20025;-64
2023/05/21 05:16:51;;;;;;;2.92;2.30;;;22.70;51.40;;;;;;5036890;28;20033;-64
2023/05/21 05:19:16;;;;;;;2.92;2.17;;;22.70;51.40;;;;;;5036514;28;20382;-64
2023/05/21 05:21:42;;;;;;;2.75;1.92;;;22.70;51.40;;;;;;5036523;28;20079;-65
2023/05/21 05:24:08;;;;;;;4.13;2.30;;;22.70;51.40;;;;;;5035136;28;20043;-64
2023/05/21 05:26:33;;;;;;;2.65;2.00;;;22.60;51.40;;;;;;5033101;28;20075;-63
2023/05/21 05:28:59;;;;;;;2.50;1.95;;;22.70;51.40;;;;;;5037153;28;20042;-64
2023/05/21 05:31:25;;;;;;;2.60;1.90;;;22.70;51.40;;;;;;5034608;28;20026;-65
2023/05/21 05:33:50;;;;;;;2.78;2.20;;;22.70;51.40;;;;;;5034465;28;20079;-64
2023/05/21 05:36:16;;;;;;;2.80;2.10;;;22.60;51.40;;;;;;5035628;28;20079;-64
2023/05/21 05:38:41;;;;;;;3.03;2.20;;;22.60;51.30;;;;;;5036251;28;20061;-64
2023/05/21 05:41:07;;;;;;;2.80;2.00;;;22.60;51.30;;;;;;5033446;28;20030;-64
2023/05/21 05:43:32;;;;;;;2.97;1.98;;;22.60;51.30;;;;;;5028181;28;20084;-64
2023/05/21 05:45:58;;;;;;;2.95;2.25;;;22.60;51.40;;;;;;5021011;28;20393;-64
2023/05/21 05:48:24;;;;;;;2.67;1.98;;;22.60;51.40;;;;;;5021309;28;20026;-64
2023/05/21 05:50:53;;;;;;;2.67;2.00;;;22.60;51.40;;;;;;5019744;28;20028;-64
2023/05/21 05:53:19;;;;;;;2.40;1.92;;;22.60;51.40;;;;;;5024246;28;20500;-64
2023/05/21 05:55:45;;;;;;;2.70;2.00;;;22.60;51.40;;;;;;5018415;28;20441;-64
2023/05/21 05:58:10;;;;;;;2.92;2.30;;;22.60;51.40;;;;;;5020004;28;20022;-64
2023/05/21 06:00:36;;;;;;;2.75;2.05;;;22.60;51.40;;;;;;5021433;28;20053;-65
2023/05/21 06:03:01;;;;;;;2.47;2.08;;;22.60;51.40;;;;;;5022879;28;20029;-64
2023/05/21 06:05:27;;;;;;;2.50;1.90;;;22.60;51.40;;;;;;5018456;28;20655;-64
2023/05/21 06:07:52;;;;;;;2.47;2.05;;;22.60;51.40;;;;;;5023203;28;20029;-64
2023/05/21 06:10:19;;;;;;;2.60;1.90;;;22.60;51.40;;;;;;5019648;28;20080;-64
2023/05/21 06:12:45;;;;;;;2.97;2.20;;;22.60;51.40;;;;;;5021351;28;20434;-64
2023/05/21 06:15:10;;;;;;;2.42;2.00;;;22.60;51.40;;;;;;5019273;28;20105;-64
2023/05/21 06:17:36;;;;;;;2.67;2.03;;;22.60;51.40;;;;;;5022619;28;20057;-64
2023/05/21 06:20:02;;;;;;;2.35;1.95;;;22.50;51.40;;;;;;5022171;28;20105;-64
2023/05/21 06:22:28;;;;;;;2.80;2.00;;;22.60;51.40;;;;;;5021976;28;20017;-64
2023/05/21 06:24:54;;;;;;;2.50;2.00;;;22.60;51.40;;;;;;5021375;28;20363;-64
2023/05/21 06:27:19;;;;;;;2.47;1.98;;;22.60;51.40;;;;;;5019715;28;20128;-64
2023/05/21 06:29:45;;;;;;;2.47;1.90;;;22.60;51.40;;;;;;5022330;28;20052;-65
2023/05/21 06:32:11;;;;;;;2.50;1.95;;;22.60;51.40;;;;;;5023280;28;20594;-64
2023/05/21 06:34:36;;;;;;;3.03;1.95;;;22.60;51.40;;;;;;5019410;28;20033;-64
2023/05/21 06:37:02;;;;;;;2.50;2.00;;;22.60;51.40;;;;;;5021216;28;20026;-64
2023/05/21 06:39:27;;;;;;;2.63;1.98;;;22.50;51.30;;;;;;5021082;28;20017;-64
2023/05/21 06:41:53;;;;;;;2.97;2.20;;;22.50;51.30;;;;;;5021741;28;20034;-64
2023/05/21 06:44:19;;;;;;;2.47;2.00;;;22.60;51.40;;;;;;5020470;28;20093;-64
2023/05/21 06:46:44;;;;;;;2.60;2.00;;;22.50;51.40;;;;;;5018614;28;20083;-64
2023/05/21 06:49:12;;;;;;;2.65;1.90;;;22.50;51.40;;;;;;5022002;28;20106;-64
2023/05/21 06:51:38;;;;;;;3.20;2.30;;;22.50;51.40;;;;;;5018652;28;20498;-63
2023/05/21 06:54:03;;;;;;;2.50;2.10;;;22.50;51.40;;;;;;5019453;28;20021;-64
2023/05/21 06:56:29;;;;;;;2.90;2.22;;;22.50;51.90;;;;;;5019152;28;20062;-64
2023/05/21 06:58:55;;;;;;;2.67;2.00;;;22.50;51.40;;;;;;5021855;28;20024;-64
2023/05/21 07:01:23;;;;;;;2.47;1.80;;;22.50;51.40;;;;;;5020520;28;20041;-64
2023/05/21 07:03:48;;;;;;;2.90;2.28;;;22.50;51.40;;;;;;5021371;28;20036;-64
2023/05/21 07:06:15;;;;;;;2.90;2.10;;;22.50;51.40;;;;;;5020586;28;20033;-64
2023/05/21 07:08:41;;;;;;;2.75;2.00;;;22.50;51.40;;;;;;5022795;28;20078;-64
2023/05/21 07:11:06;;;;;;;3.03;2.20;;;22.50;51.40;;;;;;5021533;28;20413;-64
2023/05/21 07:13:32;;;;;;;3.75;2.20;;;22.50;51.40;;;;;;5021349;28;20029;-64
2023/05/21 07:15:57;;;;;;;3.35;2.40;;;22.50;51.40;;;;;;5020073;28;20513;-64
2023/05/21 07:18:23;;;;;;;2.85;2.25;;;22.50;51.40;;;;;;5019548;28;20025;-64
2023/05/21 07:20:48;;;;;;;3.08;2.25;;;22.50;51.40;;;;;;5020408;28;20504;-64
2023/05/21 07:23:14;;;;;;;3.15;2.35;;;22.50;51.40;;;;;;5020513;28;20034;-64
2023/05/21 07:25:40;;;;;;;2.70;2.22;;;22.50;51.40;;;;;;5017704;28;20114;-64
2023/05/21 07:28:05;;;;;;;3.17;2.22;;;22.50;51.40;;;;;;5019138;28;20030;-64
2023/05/21 07:30:31;;;;;;;3.53;2.40;;;22.50;51.40;;;;;;5021679;28;20021;-65
2023/05/21 07:32:56;;;;;;;2.90;2.20;;;22.50;51.40;;;;;;5018641;28;20482;-64
2023/05/21 07:35:22;;;;;;;3.10;2.45;;;22.50;51.50;;;;;;5017730;28;20025;-64
2023/05/21 07:37:48;;;;;;;3.13;2.40;;;22.50;51.40;;;;;;5020212;28;20033;-64
2023/05/21 07:40:13;;;;;;;2.75;2.15;;;22.50;51.50;;;;;;5018143;28;20022;-64
2023/05/21 07:42:39;;;;;;;3.10;2.33;;;22.50;51.50;;;;;;5020767;28;20397;-64
2023/05/21 07:45:06;;;;;;;3.05;2.45;;;22.50;51.50;;;;;;5021834;28;20018;-64
2023/05/21 07:47:31;;;;;;;2.70;2.30;;;22.50;51.50;;;;;;5019242;28;20026;-64
2023/05/21 07:49:57;;;;;;;3.25;2.30;;;22.50;52.00;;;;;;5019859;28;20036;-64
2023/05/21 07:52:23;;;;;;;2.85;2.40;;;22.50;51.50;;;;;;5019338;28;20115;-64
2023/05/21 07:54:49;;;;;;;2.67;2.22;;;22.50;51.40;;;;;;5021437;28;20033;-64
2023/05/21 07:57:15;;;;;;;2.92;2.40;;;22.50;51.50;;;;;;5020193;28;20029;-64
2023/05/21 07:59:40;;;;;;;2.70;2.30;;;22.50;51.50;;;;;;5018697;28;20025;-64
2023/05/21 08:02:06;;;;;;;3.05;2.55;;;22.50;51.50;;;;;;5019156;28;20482;-64
2023/05/21 08:04:32;;;;;;;3.10;2.53;;;22.50;51.50;;;;;;5017777;28;20431;-64
2023/05/21 08:06:58;;;;;;;3.58;2.60;;;22.50;51.50;;;;;;5020859;28;20048;-64
2023/05/21 08:09:23;;;;;;;3.35;2.50;;;22.50;51.50;;;;;;5020018;28;20509;-64
2023/05/21 08:11:49;;;;;;;3.03;2.30;;;22.50;51.50;;;;;;5023578;28;20042;-64
2023/05/21 08:14:15;;;;;;;3.03;2.20;;;22.50;51.50;;;;;;5018093;28;20502;-64
2023/05/21 08:16:40;;;;;;;3.95;2.83;;;22.40;51.50;;;;;;5018328;28;20087;-64
2023/05/21 08:19:06;;;;;;;3.22;2.60;;;22.40;51.50;;;;;;5018667;28;20385;-64
2023/05/21 08:21:32;;;;;;;3.00;2.40;;;22.40;51.50;;;;;;5018328;28;20037;-64
2023/05/21 08:23:59;;;;;;;3.20;2.60;;;22.50;51.50;;;;;;5019713;28;20485;-64
2023/05/21 08:26:25;;;;;;;3.42;2.80;;;22.40;51.50;;;;;;5018300;28;20021;-64
2023/05/21 08:28:50;;;;;;;3.20;2.50;;;22.40;51.50;;;;;;5021125;28;20044;-64
2023/05/21 08:31:19;;;;;;;3.10;2.50;;;22.40;51.50;;;;;;5034990;28;20030;-64
2023/05/21 08:33:52;;;;;;;3.08;2.38;;;22.40;51.60;;;;;;5019888;28;20140;-64
2023/05/21 08:36:18;;;;;;;3.20;2.60;;;22.40;51.60;;;;;;5019189;28;20588;-64
2023/05/21 08:38:44;;;;;;;3.38;2.42;;;22.40;51.70;;;;;;5019816;28;20034;-64
2023/05/21 08:41:11;;;;;;;3.55;2.58;;;22.40;51.70;;;;;;5018339;28;20088;-64
2023/05/21 08:43:38;;;;;;;3.17;2.70;;;22.40;51.70;;;;;;5019888;28;20025;-64
2023/05/21 08:46:04;;;;;;;3.60;2.67;;;22.40;51.80;;;;;;5019695;28;20545;-64
2023/05/21 08:48:30;;;;;;;3.38;2.30;;;22.40;51.90;;;;;;5018545;28;20079;-64
2023/05/21 08:51:00;;;;;;;3.28;2.70;;;22.40;51.90;;;;;;5022047;28;20041;-65
2023/05/21 08:53:26;;;;;;;3.22;2.65;;;22.40;51.90;;;;;;5019327;28;20038;-64
2023/05/21 08:55:54;;;;;;;3.42;2.83;;;22.40;51.90;;;;;;5018833;28;20079;-64
2023/05/21 08:58:20;;;;;;;3.45;2.80;;;22.40;52.00;;;;;;5017345;28;20517;-64
2023/05/21 09:00:46;;;;;;;3.67;3.00;;;22.40;52.00;;;;;;5020568;28;20034;-64
2023/05/21 09:03:13;;;;;;;4.53;2.80;;;22.40;52.00;;;;;;5020137;28;20049;-64
2023/05/21 09:05:40;;;;;;;3.40;2.70;;;22.40;52.00;;;;;;5019161;28;20476;-64
2023/05/21 09:08:16;;;;;;;3.05;2.70;;;22.40;52.00;;;;;;5019863;28;20077;-64
2023/05/21 09:10:51;;;;;;;3.15;2.53;;;22.40;52.00;;;;;;5020155;28;20176;-64
2023/05/21 09:13:18;;;;;;;3.83;2.42;;;22.40;52.00;;;;;;5017047;28;20108;-64
2023/05/21 09:15:45;;;;;;;3.53;2.80;;;22.40;52.00;;;;;;5017471;28;20490;-64
2023/05/21 09:18:11;;;;;;;3.60;2.83;;;22.50;52.10;;;;;;5020030;28;20029;-64
2023/05/21 09:20:37;;;;;;;3.17;2.53;;;22.40;52.00;;;;;;5022321;28;20525;-64
2023/05/21 09:23:05;;;;;;;3.75;3.03;;;22.40;52.00;;;;;;5019453;28;20160;-64
2023/05/21 09:25:31;;;;;;;3.55;2.80;;;22.40;52.00;;;;;;5022752;28;20520;-64
2023/05/21 09:27:58;;;;;;;3.03;2.45;;;22.40;52.00;;;;;;5019990;28;20502;-64
2023/05/21 09:30:24;;;;;;;4.07;3.03;;;22.40;52.00;;;;;;5021093;28;20476;-64
2023/05/21 09:32:57;;;;;;;3.42;2.80;;;22.40;52.00;;;;;;5023230;28;20132;-64
2023/05/21 09:35:23;;;;;;;3.35;2.65;;;22.40;52.00;;;;;;5020296;28;20033;-64
2023/05/21 09:37:51;;;;;;;3.60;2.85;;;22.40;51.90;;;;;;5028564;28;20398;-64
2023/05/21 09:40:20;;;;;;;3.28;2.80;;;22.50;52.00;;;;;;5020395;28;20076;-64
2023/05/21 09:42:53;;;;;;;3.40;3.00;;;22.40;51.90;;;;;;5018653;28;20034;-64
2023/05/21 09:45:21;;;;;;;3.38;2.67;;;22.50;52.00;;;;;;5021570;28;20038;-64
2023/05/21 09:47:47;;;;;;;3.28;2.90;;;22.50;52.00;;;;;;5021444;28;20044;-64
2023/05/21 09:50:17;;;;;;;3.60;2.80;;;22.50;52.00;;;;;;5021371;28;20498;-64
2023/05/21 09:52:43;;;;;;;3.20;2.80;;;22.50;52.00;;;;;;5022188;28;20026;-64
2023/05/21 09:55:13;;;;;;;3.45;2.90;;;22.50;52.00;;;;;;5020426;28;20478;-64
2023/05/21 09:57:42;;;;;;;3.28;2.70;;;22.40;51.90;;;;;;5020809;28;20401;-64
2023/05/21 10:00:16;;;;;;;3.60;2.90;;;22.50;51.90;;;;;;5022371;28;20482;-64
2023/05/21 10:02:44;;;;;;;3.33;2.88;;;22.50;51.90;;;;;;5028723;28;20033;-65
2023/05/21 10:05:12;;;;;;;3.05;2.50;;;22.50;52.00;;;;;;5020025;28;20117;-64
2023/05/21 10:07:41;;;;;;;3.35;2.90;;;22.50;51.90;;;;;;5022268;28;20044;-64
2023/05/21 10:10:10;;;;;;;3.50;2.75;;;22.50;51.90;;;;;;5022709;28;20437;-65
2023/05/21 10:12:38;;;;;;;3.40;2.70;;;22.50;51.90;;;;;;5021299;28;20057;-64
2023/05/21 10:15:08;;;;;;;3.10;2.65;;;22.50;51.90;;;;;;5024176;28;20171;-64
2023/05/21 10:17:34;;;;;;;3.15;2.70;;;22.50;51.80;;;;;;5021649;28;20104;-64
2023/05/21 10:20:00;;;;;;;3.40;3.10;;;22.50;51.80;;;;;;5021934;28;20117;-64
2023/05/21 10:22:26;;;;;;;3.40;2.97;;;22.50;51.80;;;;;;5022291;28;20065;-64
2023/05/21 10:24:53;;;;;;;3.63;2.80;;;22.50;51.80;;;;;;5016095;28;20116;-63
2023/05/21 10:27:20;;;;;;;3.60;2.67;;;22.50;52.10;;;;;;5020590;28;20392;-64
2023/05/21 10:29:47;;;;;;;3.30;2.72;;;22.50;52.30;;;;;;5021934;28;20109;-64
2023/05/21 10:32:15;;;;;;;3.50;2.83;;;22.50;51.80;;;;;;5022653;28;20140;-64
2023/05/21 10:34:45;;;;;;;3.50;3.00;;;22.50;51.80;;;;;;5020218;28;20496;-64
2023/05/21 10:37:12;;;;;;;3.33;2.90;;;22.50;51.80;;;;;;5019544;28;20021;-72
2023/05/21 10:39:38;;;;;;;3.58;3.17;;;22.50;51.70;;;;;;5018136;28;20370;-68
2023/05/21 10:42:30;;;;;;;3.90;3.10;;;22.50;51.80;;;;;;5020801;28;20030;-67
2023/05/21 10:45:18;;;;;;;4.63;3.00;;;22.50;51.80;;;;;;5020372;28;20509;-66
2023/05/21 10:48:00;;;;;;;3.75;3.03;;;22.50;51.90;;;;;;5020888;28;20045;-66
2023/05/21 10:50:37;;;;;;;3.20;2.80;;;22.50;51.80;;;;;;5019156;28;20504;-66
2023/05/21 10:53:28;;;;;;;3.35;3.05;;;22.50;51.70;;;;;;5017437;28;20539;-65
2023/05/21 10:56:12;;;;;;;3.40;3.10;;;22.50;51.70;;;;;;5019914;28;20473;-65
2023/05/21 10:58:52;;;;;;;3.40;3.10;;;22.50;51.70;;;;;;5018388;28;20017;-65
2023/05/21 11:01:18;;;;;;;4.00;3.00;;;22.50;52.20;;;;;;5020244;28;20080;-65
2023/05/21 11:03:47;;;;;;;3.25;2.70;;;22.50;51.70;;;;;;5021258;28;20037;-65
2023/05/21 11:06:23;;;;;;;3.33;2.72;;;22.50;51.70;;;;;;5019352;28;20022;-65
2023/05/21 11:08:52;;;;;;;4.90;3.15;;;22.50;51.70;;;;;;5020947;28;20497;-65
2023/05/21 11:11:43;;;;;;;2.88;2.58;;;22.50;51.70;;;;;;5020406;28;20497;-65
2023/05/21 11:14:30;;;;;;;3.67;3.00;;;22.50;51.70;;;;;;5017501;28;20105;-65
2023/05/21 11:16:57;;;;;;;3.42;2.90;;;22.50;51.70;;;;;;5019602;28;20032;-65
2023/05/21 11:19:35;;;;;;;3.13;2.58;;;22.50;51.70;;;;;;5020962;28;20026;-65
2023/05/21 11:22:08;;;;;;;3.20;2.80;;;22.50;51.70;;;;;;5021766;28;20113;-65
2023/05/21 11:24:38;;;;;;;3.47;2.55;;;22.50;51.70;;;;;;5026302;28;20576;-65
2023/05/21 11:27:05;;;;;;;3.95;3.33;;;22.50;51.60;;;;;;5020413;28;20030;-65
2023/05/21 11:29:43;;;;;;;3.47;3.00;;;22.50;51.60;;;;;;5019258;28;20027;-65
2023/05/21 11:32:11;;;;;;;4.15;3.20;;;22.50;51.70;;;;;;5019685;28;20022;-65
2023/05/21 11:34:38;;;;;;;4.05;3.17;;;22.50;51.70;;;;;;5019812;28;20529;-65
2023/05/21 11:37:22;;;;;;;4.05;3.20;;;22.50;51.70;;;;;;5017912;28;20029;-65
2023/05/21 11:39:48;;;;;;;4.05;3.05;;;22.50;51.70;;;;;;5018839;28;20473;-65
2023/05/21 11:42:29;;;;;;;3.15;2.80;;;22.50;51.70;;;;;;5021107;28;20029;-65
2023/05/21 11:44:59;;;;;;;3.20;2.70;;;22.50;51.70;;;;;;5019762;28;20435;-65
2023/05/21 11:47:26;;;;;;;3.40;2.80;;;22.50;51.70;;;;;;5020612;28;20040;-65
2023/05/21 11:49:52;;;;;;;3.35;2.92;;;22.60;51.80;;;;;;5020172;28;20042;-65
2023/05/21 11:52:18;;;;;;;3.45;2.88;;;22.50;51.70;;;;;;5020057;28;20033;-65
2023/05/21 11:54:47;;;;;;;3.33;2.75;;;22.60;51.80;;;;;;5021597;28;20018;-65
2023/05/21 11:57:17;;;;;;;3.80;3.03;;;22.60;51.80;;;;;;5017667;28;20021;-65
2023/05/21 11:59:43;;;;;;;4.93;2.80;;;22.60;51.80;;;;;;5017936;28;20269;-65
2023/05/21 12:02:15;;;;;;;2.97;2.67;;;22.60;51.80;;;;;;5019581;28;20400;-65
2023/05/21 12:04:41;;;;;;;3.50;2.50;;;22.60;51.80;;;;;;5020641;28;20017;-65
2023/05/21 12:07:09;;;;;;;3.72;2.90;;;22.60;51.80;;;;;;5021083;28;20026;-65
2023/05/21 12:09:48;;;;;;;3.67;2.80;;;22.60;51.80;;;;;;5018111;28;20030;-65
2023/05/21 12:12:15;;;;;;;3.67;2.92;;;22.60;51.80;;;;;;5020211;28;20026;-65
2023/05/21 12:14:46;;;;;;;3.83;3.22;;;22.60;51.80;;;;;;5018617;28;20043;-65
2023/05/21 12:17:15;;;;;;;3.83;3.30;;;22.50;51.70;;;;;;5016884;28;20061;-65
2023/05/21 12:19:41;;;;;;;4.00;3.25;;;22.60;51.70;;;;;;5015740;28;20109;-65
2023/05/21 12:22:07;;;;;;;3.60;3.22;;;22.60;51.80;;;;;;5020907;28;20396;-65
2023/05/21 12:24:34;;;;;;;3.97;3.00;;;22.60;51.80;;;;;;5019669;28;20029;-65
2023/05/21 12:27:01;;;;;;;4.43;3.20;;;22.60;51.70;;;;;;5019671;28;20481;-65
2023/05/21 12:29:31;;;;;;;3.63;2.90;;;22.60;51.70;;;;;;5018070;28;20450;-65
2023/05/21 12:32:00;;;;;;;3.53;3.10;;;22.60;51.80;;;;;;5021089;28;20065;-64
2023/05/21 12:34:43;;;;;;;3.45;2.88;;;22.60;51.70;;;;;;5015234;28;20034;-64
2023/05/21 12:37:20;;;;;;;4.40;3.20;;;22.60;51.70;;;;;;5018199;28;20026;-65
2023/05/21 12:39:56;;;;;;;3.97;3.00;;;22.60;51.60;;;;;;5017829;28;20110;-65
2023/05/21 12:42:27;;;;;;;4.50;3.40;;;22.60;52.10;;;;;;5018851;28;20033;-64
2023/05/21 12:44:53;;;;;;;3.65;2.70;;;22.60;51.60;;;;;;5018216;28;20041;-65
2023/05/21 12:47:25;;;;;;;3.50;3.10;;;22.60;51.50;;;;;;5020381;28;20056;-64
2023/05/21 12:49:56;;;;;;;3.65;3.05;;;22.60;51.50;;;;;;5015612;28;20125;-64